DLH96 VTSP-EDDF
Flight info
| Callsign | DLH96 |
|---|---|
| Flight time | N/A |
| Altitude | 34000 |
| Route | SATVA1A SATVA L759 KKJ J1 MEMID L760 DPN G333 MERUN L750 RANAH A846 RUBAD B475 DOLOS B449 MAMED P130 BODKA/N0494F360 P130 REBLO UM11 ARLAT DCT CRM UL746 ODERO DCT OPT DCT IRLOX DCT BUDOP/N0479F380 DCT UVERA DCT PEPIK DCT LIKSA DCT RAPET T170 VAGAB/N0472F240 T170 GAPLA T178 KERAX KERAX5A |
| Aircraft | A35K/H-SDE2E3GHIJ3J4J5LM1ORWXY/LB1D1 |
Departure
| Time | N/A |
|---|---|
| Airport | Phuket International Airport (VTSP) |
Arrival
| Time | 2026-05-06 07:02 |
|---|---|
| Airport | Frankfurt Main Airport (EDDF) |
| Time | Latitude | Longitude | Altitude | Speed | Heading |
|---|---|---|---|---|---|
| 2026-05-06 06:25 | 49.76729 | 13.90775 | 37802 ft | 469 kts | 288° |
| 2026-05-06 06:26 | 49.78019 | 13.86146 | 37800 ft | 468 kts | 288° |
| 2026-05-06 06:26 | 49.80593 | 13.76878 | 37798 ft | 469 kts | 288° |
| 2026-05-06 06:27 | 49.83138 | 13.67679 | 37818 ft | 468 kts | 288° |
| 2026-05-06 06:27 | 49.85700 | 13.58382 | 37808 ft | 470 kts | 289° |
| 2026-05-06 06:28 | 49.88260 | 13.49058 | 37812 ft | 470 kts | 289° |
| 2026-05-06 06:28 | 49.90817 | 13.39715 | 37805 ft | 471 kts | 289° |
| 2026-05-06 06:29 | 49.93369 | 13.30354 | 37792 ft | 471 kts | 288° |
| 2026-05-06 06:29 | 49.95895 | 13.21044 | 37792 ft | 471 kts | 288° |
| 2026-05-06 06:30 | 49.98429 | 13.11669 | 37797 ft | 471 kts | 288° |
| 2026-05-06 06:30 | 50.00940 | 13.02330 | 37798 ft | 471 kts | 288° |
| 2026-05-06 06:31 | 50.03443 | 12.92995 | 37799 ft | 471 kts | 288° |
| 2026-05-06 06:31 | 50.05954 | 12.83595 | 37799 ft | 471 kts | 288° |
| 2026-05-06 06:32 | 50.08470 | 12.74132 | 37800 ft | 473 kts | 288° |
| 2026-05-06 06:32 | 50.10977 | 12.64654 | 37798 ft | 474 kts | 288° |
| 2026-05-06 06:33 | 50.13483 | 12.55157 | 37794 ft | 474 kts | 288° |
| 2026-05-06 06:33 | 50.15960 | 12.45727 | 37809 ft | 473 kts | 288° |
| 2026-05-06 06:34 | 50.18452 | 12.36197 | 37782 ft | 474 kts | 288° |
| 2026-05-06 06:34 | 50.20853 | 12.26614 | 37780 ft | 473 kts | 286° |
| 2026-05-06 06:35 | 50.23035 | 12.16927 | 37789 ft | 473 kts | 285° |
| 2026-05-06 06:35 | 50.25197 | 12.07218 | 37806 ft | 473 kts | 285° |
| 2026-05-06 06:36 | 50.27381 | 11.97569 | 37796 ft | 476 kts | 286° |
| 2026-05-06 06:36 | 50.29617 | 11.87828 | 37803 ft | 476 kts | 286° |
| 2026-05-06 06:37 | 50.31850 | 11.78076 | 37804 ft | 476 kts | 286° |
| 2026-05-06 06:37 | 50.34072 | 11.68316 | 37804 ft | 476 kts | 286° |
| 2026-05-06 06:38 | 50.36283 | 11.58548 | 37802 ft | 476 kts | 286° |
| 2026-05-06 06:38 | 50.38476 | 11.48810 | 37787 ft | 478 kts | 286° |
| 2026-05-06 06:39 | 50.40675 | 11.38990 | 37782 ft | 478 kts | 286° |
| 2026-05-06 06:39 | 50.42870 | 11.29160 | 37772 ft | 478 kts | 286° |
| 2026-05-06 06:40 | 50.45055 | 11.19317 | 37772 ft | 477 kts | 285° |
| 2026-05-06 06:40 | 50.47212 | 11.09525 | 37776 ft | 478 kts | 285° |
| 2026-05-06 06:41 | 50.49379 | 10.99647 | 37779 ft | 479 kts | 285° |
| 2026-05-06 06:41 | 50.51542 | 10.89751 | 37779 ft | 479 kts | 285° |
| 2026-05-06 06:42 | 50.53699 | 10.79851 | 37778 ft | 479 kts | 286° |
| 2026-05-06 06:42 | 50.55905 | 10.70042 | 37778 ft | 479 kts | 287° |
| 2026-05-06 06:43 | 50.58163 | 10.60145 | 37769 ft | 481 kts | 286° |
| 2026-05-06 06:43 | 50.60418 | 10.50244 | 37768 ft | 481 kts | 286° |
| 2026-05-06 06:44 | 50.62660 | 10.40312 | 37769 ft | 481 kts | 286° |
| 2026-05-06 06:44 | 50.64205 | 10.30260 | 37768 ft | 472 kts | 268° |
| 2026-05-06 06:44 | 50.63884 | 10.25161 | 37766 ft | 466 kts | 253° |
| 2026-05-06 06:45 | 50.62795 | 10.20425 | 37533 ft | 452 kts | 244° |
| 2026-05-06 06:45 | 50.61457 | 10.16009 | 36549 ft | 444 kts | 241° |
| 2026-05-06 06:45 | 50.59989 | 10.11720 | 35110 ft | 448 kts | 239° |
| 2026-05-06 06:45 | 50.58438 | 10.07438 | 33635 ft | 453 kts | 238° |
| 2026-05-06 06:46 | 50.56858 | 10.03126 | 31923 ft | 457 kts | 239° |
| 2026-05-06 06:46 | 50.55280 | 9.98766 | 30258 ft | 460 kts | 240° |
| 2026-05-06 06:46 | 50.54000 | 9.94139 | 28362 ft | 465 kts | 249° |
| 2026-05-06 06:46 | 50.52971 | 9.89330 | 26695 ft | 463 kts | 251° |
| 2026-05-06 06:47 | 50.52057 | 9.84575 | 25282 ft | 457 kts | 252° |
| 2026-05-06 06:47 | 50.51196 | 9.79804 | 23990 ft | 451 kts | 253° |
| 2026-05-06 06:47 | 50.50367 | 9.75096 | 22715 ft | 442 kts | 253° |
| 2026-05-06 06:47 | 50.49571 | 9.70501 | 21365 ft | 432 kts | 253° |
| 2026-05-06 06:48 | 50.48810 | 9.65981 | 20020 ft | 424 kts | 253° |
| 2026-05-06 06:48 | 50.48037 | 9.61573 | 18715 ft | 415 kts | 251° |
| 2026-05-06 06:48 | 50.46812 | 9.57535 | 17219 ft | 407 kts | 234° |
| 2026-05-06 06:48 | 50.44961 | 9.54246 | 15787 ft | 399 kts | 224° |
| 2026-05-06 06:49 | 50.42969 | 9.51280 | 14463 ft | 392 kts | 223° |
| 2026-05-06 06:49 | 50.41026 | 9.48432 | 13768 ft | 370 kts | 223° |
| 2026-05-06 06:49 | 50.39233 | 9.45795 | 13269 ft | 346 kts | 223° |
| 2026-05-06 06:49 | 50.37542 | 9.43293 | 12811 ft | 323 kts | 224° |
| 2026-05-06 06:50 | 50.35962 | 9.40951 | 12427 ft | 303 kts | 224° |
| 2026-05-06 06:50 | 50.34390 | 9.38883 | 11859 ft | 290 kts | 214° |
| 2026-05-06 06:50 | 50.32541 | 9.37705 | 11128 ft | 288 kts | 192° |
| 2026-05-06 06:50 | 50.30562 | 9.37820 | 10593 ft | 283 kts | 168° |
| 2026-05-06 06:51 | 50.28732 | 9.38730 | 10236 ft | 270 kts | 164° |
| 2026-05-06 06:51 | 50.26976 | 9.39629 | 9922 ft | 264 kts | 171° |
| 2026-05-06 06:51 | 50.25113 | 9.39773 | 9649 ft | 271 kts | 192° |
| 2026-05-06 06:51 | 50.23390 | 9.38768 | 9307 ft | 269 kts | 214° |
| 2026-05-06 06:52 | 50.22072 | 9.36746 | 8977 ft | 267 kts | 237° |
| 2026-05-06 06:52 | 50.21363 | 9.34088 | 8662 ft | 266 kts | 256° |
| 2026-05-06 06:52 | 50.20930 | 9.31282 | 8378 ft | 265 kts | 252° |
| 2026-05-06 06:52 | 50.20370 | 9.28542 | 8073 ft | 264 kts | 250° |
| 2026-05-06 06:53 | 50.19769 | 9.25850 | 7764 ft | 262 kts | 250° |
| 2026-05-06 06:53 | 50.19159 | 9.23179 | 7475 ft | 261 kts | 249° |
| 2026-05-06 06:53 | 50.18556 | 9.20546 | 7171 ft | 260 kts | 249° |
| 2026-05-06 06:53 | 50.17947 | 9.17903 | 6853 ft | 259 kts | 249° |
| 2026-05-06 06:54 | 50.17333 | 9.15251 | 6541 ft | 260 kts | 249° |
| 2026-05-06 06:54 | 50.16720 | 9.12616 | 6253 ft | 258 kts | 249° |
| 2026-05-06 06:54 | 50.16112 | 9.09999 | 5949 ft | 257 kts | 249° |
| 2026-05-06 06:54 | 50.15500 | 9.07384 | 5642 ft | 256 kts | 249° |
| 2026-05-06 06:55 | 50.14902 | 9.04821 | 5488 ft | 245 kts | 249° |
| 2026-05-06 06:55 | 50.14339 | 9.02403 | 5391 ft | 231 kts | 249° |
| 2026-05-06 06:55 | 50.13809 | 9.00113 | 5302 ft | 218 kts | 249° |
| 2026-05-06 06:55 | 50.13315 | 8.97993 | 5211 ft | 204 kts | 249° |
| 2026-05-06 06:56 | 50.12846 | 8.96001 | 5123 ft | 189 kts | 249° |
| 2026-05-06 06:56 | 50.12421 | 8.94121 | 5003 ft | 182 kts | 250° |
| 2026-05-06 06:56 | 50.12002 | 8.92269 | 4759 ft | 182 kts | 249° |
| 2026-05-06 06:56 | 50.11564 | 8.90434 | 4546 ft | 180 kts | 248° |
| 2026-05-06 06:57 | 50.11132 | 8.88625 | 4384 ft | 176 kts | 249° |
| 2026-05-06 06:57 | 50.10722 | 8.86880 | 4202 ft | 168 kts | 249° |
| 2026-05-06 06:57 | 50.10329 | 8.85214 | 3966 ft | 160 kts | 249° |
| 2026-05-06 06:57 | 50.09948 | 8.83608 | 3756 ft | 157 kts | 250° |
| 2026-05-06 06:58 | 50.09573 | 8.82036 | 3528 ft | 157 kts | 249° |
| 2026-05-06 06:58 | 50.09196 | 8.80427 | 3405 ft | 159 kts | 250° |
| 2026-05-06 06:58 | 50.08827 | 8.78816 | 3234 ft | 157 kts | 249° |
| 2026-05-06 06:58 | 50.08434 | 8.77235 | 3040 ft | 157 kts | 248° |
| 2026-05-06 06:59 | 50.08055 | 8.75647 | 2861 ft | 158 kts | 250° |
| 2026-05-06 06:59 | 50.07693 | 8.74046 | 2607 ft | 153 kts | 249° |
| 2026-05-06 06:59 | 50.07328 | 8.72530 | 2351 ft | 146 kts | 247° |
| 2026-05-06 06:59 | 50.06964 | 8.71086 | 2066 ft | 140 kts | 248° |
| 2026-05-06 07:00 | 50.06641 | 8.69703 | 1863 ft | 137 kts | 249° |
| 2026-05-06 07:00 | 50.06327 | 8.68297 | 1693 ft | 137 kts | 248° |
| 2026-05-06 07:00 | 50.05983 | 8.66926 | 1518 ft | 137 kts | 246° |
| 2026-05-06 07:00 | 50.05640 | 8.65517 | 1299 ft | 140 kts | 249° |
| 2026-05-06 07:01 | 50.05305 | 8.64097 | 1097 ft | 138 kts | 249° |
| 2026-05-06 07:01 | 50.04983 | 8.62701 | 940 ft | 139 kts | 247° |
| 2026-05-06 07:01 | 50.04624 | 8.61256 | 773 ft | 145 kts | 246° |
| 2026-05-06 07:01 | 50.04278 | 8.59769 | 573 ft | 147 kts | 246° |
| 2026-05-06 07:02 | 50.03922 | 8.58279 | 388 ft | 146 kts | 243° |
| 2026-05-06 07:02 | 50.03606 | 8.56993 | 368 ft | 105 kts | 248° |
| 2026-05-06 07:02 | 50.03416 | 8.56188 | 366 ft | 55 kts | 249° |
| 2026-05-06 07:02 | 50.03320 | 8.55736 | 365 ft | 32 kts | 259° |
| 2026-05-06 07:03 | 50.03321 | 8.55422 | 369 ft | 26 kts | 278° |
| 2026-05-06 07:03 | 50.03344 | 8.55218 | 371 ft | 16 kts | 280° |
| 2026-05-06 07:03 | 50.03376 | 8.55040 | 369 ft | 18 kts | 292° |
| 2026-05-06 07:03 | 50.03431 | 8.54874 | 373 ft | 17 kts | 313° |
| 2026-05-06 07:04 | 50.03554 | 8.54782 | 366 ft | 22 kts | 338° |
| 2026-05-06 07:04 | 50.03659 | 8.54723 | 366 ft | 12 kts | 340° |
| 2026-05-06 07:04 | 50.03735 | 8.54731 | 369 ft | 12 kts | 31° |
| 2026-05-06 07:04 | 50.03791 | 8.54871 | 374 ft | 20 kts | 68° |
| 2026-05-06 07:05 | 50.03846 | 8.55095 | 368 ft | 23 kts | 69° |
| 2026-05-06 07:05 | 50.03897 | 8.55314 | 366 ft | 22 kts | 70° |
| 2026-05-06 07:05 | 50.03954 | 8.55543 | 372 ft | 24 kts | 70° |
| 2026-05-06 07:05 | 50.04012 | 8.55795 | 373 ft | 25 kts | 70° |
| 2026-05-06 07:06 | 50.04071 | 8.55949 | 374 ft | 13 kts | 22° |
| 2026-05-06 07:06 | 50.04166 | 8.55928 | 372 ft | 15 kts | 345° |
| 2026-05-06 07:06 | 50.04266 | 8.55953 | 370 ft | 15 kts | 5° |
| 2026-05-06 07:06 | 50.04374 | 8.55919 | 370 ft | 17 kts | 350° |
| 2026-05-06 07:07 | 50.04495 | 8.55942 | 373 ft | 18 kts | 18° |
| 2026-05-06 07:07 | 50.04583 | 8.56077 | 375 ft | 19 kts | 66° |
| 2026-05-06 07:07 | 50.04630 | 8.56279 | 373 ft | 21 kts | 69° |
| 2026-05-06 07:07 | 50.04668 | 8.56438 | 371 ft | 12 kts | 69° |
| 2026-05-06 07:08 | 50.04709 | 8.56516 | 372 ft | 9 kts | 17° |
| 2026-05-06 07:08 | 50.04763 | 8.56502 | 374 ft | 5 kts | 341° |
| 2026-05-06 07:08 | 50.04771 | 8.56497 | 367 ft | 0 kts | 341° |